sensor_id;sensor_type;location;lat;lon;timestamp;P1;durP1;ratioP1;P2;durP2;ratioP2
9520;SDS011;4798;41.574;23.734;2024-02-16T00:01:41;0.60;;;0.43;;
9520;SDS011;4798;41.574;23.734;2024-02-16T00:04:12;1.27;;;0.70;;
9520;SDS011;4798;41.574;23.734;2024-02-16T00:06:41;0.40;;;0.30;;
9520;SDS011;4798;41.574;23.734;2024-02-16T00:09:10;0.37;;;0.30;;
9520;SDS011;4798;41.574;23.734;2024-02-16T00:11:39;0.70;;;0.23;;
9520;SDS011;4798;41.574;23.734;2024-02-16T00:14:07;0.47;;;0.40;;
9520;SDS011;4798;41.574;23.734;2024-02-16T00:16:36;1.07;;;0.30;;
9520;SDS011;4798;41.574;23.734;2024-02-16T00:19:05;0.60;;;0.47;;
9520;SDS011;4798;41.574;23.734;2024-02-16T00:21:35;0.93;;;0.33;;
9520;SDS011;4798;41.574;23.734;2024-02-16T00:24:03;1.50;;;0.40;;
9520;SDS011;4798;41.574;23.734;2024-02-16T00:26:32;6.23;;;1.23;;
9520;SDS011;4798;41.574;23.734;2024-02-16T00:29:01;0.40;;;0.30;;
9520;SDS011;4798;41.574;23.734;2024-02-16T00:31:30;0.40;;;0.40;;
9520;SDS011;4798;41.574;23.734;2024-02-16T00:33:59;3.10;;;0.30;;
9520;SDS011;4798;41.574;23.734;2024-02-16T00:36:28;0.50;;;0.50;;
9520;SDS011;4798;41.574;23.734;2024-02-16T00:38:59;1.43;;;0.60;;
9520;SDS011;4798;41.574;23.734;2024-02-16T00:41:28;1.90;;;0.50;;
9520;SDS011;4798;41.574;23.734;2024-02-16T00:43:56;0.53;;;0.53;;
9520;SDS011;4798;41.574;23.734;2024-02-16T00:46:25;0.40;;;0.30;;
9520;SDS011;4798;41.574;23.734;2024-02-16T00:48:54;0.40;;;0.30;;
9520;SDS011;4798;41.574;23.734;2024-02-16T00:51:23;0.40;;;0.30;;
9520;SDS011;4798;41.574;23.734;2024-02-16T00:53:53;2.30;;;0.63;;
9520;SDS011;4798;41.574;23.734;2024-02-16T00:56:23;1.47;;;0.37;;
9520;SDS011;4798;41.574;23.734;2024-02-16T00:58:51;0.77;;;0.77;;
9520;SDS011;4798;41.574;23.734;2024-02-16T01:01:20;2.30;;;1.17;;
9520;SDS011;4798;41.574;23.734;2024-02-16T01:03:49;0.60;;;0.30;;
9520;SDS011;4798;41.574;23.734;2024-02-16T01:06:18;0.60;;;0.60;;
9520;SDS011;4798;41.574;23.734;2024-02-16T01:08:47;2.53;;;0.40;;
9520;SDS011;4798;41.574;23.734;2024-02-16T01:11:16;6.83;;;0.60;;
9520;SDS011;4798;41.574;23.734;2024-02-16T01:13:47;0.50;;;0.50;;
9520;SDS011;4798;41.574;23.734;2024-02-16T01:16:16;1.13;;;1.13;;
9520;SDS011;4798;41.574;23.734;2024-02-16T01:18:45;1.07;;;0.37;;
9520;SDS011;4798;41.574;23.734;2024-02-16T01:21:14;0.70;;;0.70;;
9520;SDS011;4798;41.574;23.734;2024-02-16T01:23:43;0.53;;;0.33;;
9520;SDS011;4798;41.574;23.734;2024-02-16T01:26:11;0.80;;;0.80;;
9520;SDS011;4798;41.574;23.734;2024-02-16T01:28:40;0.90;;;0.80;;
9520;SDS011;4798;41.574;23.734;2024-02-16T01:31:10;0.53;;;0.33;;
9520;SDS011;4798;41.574;23.734;2024-02-16T01:33:39;0.37;;;0.23;;
9520;SDS011;4798;41.574;23.734;2024-02-16T01:36:08;0.40;;;0.37;;
9520;SDS011;4798;41.574;23.734;2024-02-16T01:38:37;0.30;;;0.20;;
9520;SDS011;4798;41.574;23.734;2024-02-16T01:41:06;0.30;;;0.20;;
9520;SDS011;4798;41.574;23.734;2024-02-16T01:43:35;0.40;;;0.20;;
9520;SDS011;4798;41.574;23.734;2024-02-16T01:46:04;0.70;;;0.70;;
9520;SDS011;4798;41.574;23.734;2024-02-16T01:48:34;10.97;;;0.40;;
9520;SDS011;4798;41.574;23.734;2024-02-16T01:51:04;0.40;;;0.30;;
9520;SDS011;4798;41.574;23.734;2024-02-16T01:53:34;0.30;;;0.27;;
9520;SDS011;4798;41.574;23.734;2024-02-16T01:56:04;0.50;;;0.30;;
9520;SDS011;4798;41.574;23.734;2024-02-16T01:58:33;0.70;;;0.70;;
9520;SDS011;4798;41.574;23.734;2024-02-16T02:01:02;0.50;;;0.40;;
9520;SDS011;4798;41.574;23.734;2024-02-16T02:03:31;0.50;;;0.40;;
9520;SDS011;4798;41.574;23.734;2024-02-16T02:06:03;2.77;;;0.73;;
9520;SDS011;4798;41.574;23.734;2024-02-16T02:08:32;0.77;;;0.37;;
9520;SDS011;4798;41.574;23.734;2024-02-16T02:11:01;0.40;;;0.30;;
9520;SDS011;4798;41.574;23.734;2024-02-16T02:13:30;0.40;;;0.30;;
9520;SDS011;4798;41.574;23.734;2024-02-16T02:15:58;0.40;;;0.30;;
9520;SDS011;4798;41.574;23.734;2024-02-16T02:18:28;0.50;;;0.43;;
9520;SDS011;4798;41.574;23.734;2024-02-16T02:20:57;0.40;;;0.30;;
9520;SDS011;4798;41.574;23.734;2024-02-16T02:23:27;0.40;;;0.30;;
9520;SDS011;4798;41.574;23.734;2024-02-16T02:25:56;0.60;;;0.60;;
9520;SDS011;4798;41.574;23.734;2024-02-16T02:28:24;0.60;;;0.30;;
9520;SDS011;4798;41.574;23.734;2024-02-16T02:30:53;0.40;;;0.30;;
9520;SDS011;4798;41.574;23.734;2024-02-16T02:33:22;0.60;;;0.30;;
9520;SDS011;4798;41.574;23.734;2024-02-16T02:35:51;0.43;;;0.40;;
9520;SDS011;4798;41.574;23.734;2024-02-16T02:38:20;0.53;;;0.50;;
9520;SDS011;4798;41.574;23.734;2024-02-16T02:40:50;0.70;;;0.53;;
9520;SDS011;4798;41.574;23.734;2024-02-16T02:43:18;1.27;;;0.30;;
9520;SDS011;4798;41.574;23.734;2024-02-16T02:45:48;0.47;;;0.43;;
9520;SDS011;4798;41.574;23.734;2024-02-16T02:48:17;0.63;;;0.63;;
9520;SDS011;4798;41.574;23.734;2024-02-16T02:50:46;0.40;;;0.30;;
9520;SDS011;4798;41.574;23.734;2024-02-16T02:53:14;0.50;;;0.30;;
9520;SDS011;4798;41.574;23.734;2024-02-16T02:55:44;0.70;;;0.40;;
9520;SDS011;4798;41.574;23.734;2024-02-16T02:58:14;0.40;;;0.40;;
9520;SDS011;4798;41.574;23.734;2024-02-16T03:00:44;1.07;;;0.60;;
9520;SDS011;4798;41.574;23.734;2024-02-16T03:03:13;0.40;;;0.40;;
9520;SDS011;4798;41.574;23.734;2024-02-16T03:05:41;0.97;;;0.97;;
9520;SDS011;4798;41.574;23.734;2024-02-16T03:08:11;0.30;;;0.20;;
9520;SDS011;4798;41.574;23.734;2024-02-16T03:10:39;0.30;;;0.20;;
9520;SDS011;4798;41.574;23.734;2024-02-16T03:13:09;0.40;;;0.30;;
9520;SDS011;4798;41.574;23.734;2024-02-16T03:15:41;0.50;;;0.30;;
9520;SDS011;4798;41.574;23.734;2024-02-16T03:18:09;0.60;;;0.60;;
9520;SDS011;4798;41.574;23.734;2024-02-16T03:20:38;2.63;;;2.53;;
9520;SDS011;4798;41.574;23.734;2024-02-16T03:23:07;0.53;;;0.53;;
9520;SDS011;4798;41.574;23.734;2024-02-16T03:25:35;0.47;;;0.47;;
9520;SDS011;4798;41.574;23.734;2024-02-16T03:28:04;0.53;;;0.53;;
9520;SDS011;4798;41.574;23.734;2024-02-16T03:30:33;1.43;;;0.80;;
9520;SDS011;4798;41.574;23.734;2024-02-16T03:33:03;0.50;;;0.47;;
9520;SDS011;4798;41.574;23.734;2024-02-16T03:35:32;1.20;;;1.10;;
9520;SDS011;4798;41.574;23.734;2024-02-16T03:38:01;0.50;;;0.50;;
9520;SDS011;4798;41.574;23.734;2024-02-16T03:40:30;0.43;;;0.33;;
9520;SDS011;4798;41.574;23.734;2024-02-16T03:42:59;0.50;;;0.50;;
9520;SDS011;4798;41.574;23.734;2024-02-16T03:45:27;2.17;;;1.70;;
9520;SDS011;4798;41.574;23.734;2024-02-16T03:47:56;0.53;;;0.43;;
9520;SDS011;4798;41.574;23.734;2024-02-16T03:50:26;1.00;;;1.00;;
9520;SDS011;4798;41.574;23.734;2024-02-16T03:52:55;0.57;;;0.30;;
9520;SDS011;4798;41.574;23.734;2024-02-16T03:55:24;0.73;;;0.73;;
9520;SDS011;4798;41.574;23.734;2024-02-16T03:57:52;1.07;;;1.07;;
9520;SDS011;4798;41.574;23.734;2024-02-16T04:00:21;0.70;;;0.70;;
9520;SDS011;4798;41.574;23.734;2024-02-16T04:02:51;0.60;;;0.60;;
9520;SDS011;4798;41.574;23.734;2024-02-16T04:05:20;1.03;;;0.93;;
9520;SDS011;4798;41.574;23.734;2024-02-16T04:07:50;1.37;;;1.27;;
9520;SDS011;4798;41.574;23.734;2024-02-16T04:10:19;1.33;;;0.50;;
9520;SDS011;4798;41.574;23.734;2024-02-16T04:12:47;1.20;;;1.00;;
9520;SDS011;4798;41.574;23.734;2024-02-16T04:15:16;0.93;;;0.83;;
9520;SDS011;4798;41.574;23.734;2024-02-16T04:17:44;1.37;;;1.27;;
9520;SDS011;4798;41.574;23.734;2024-02-16T04:20:14;0.53;;;0.53;;
9520;SDS011;4798;41.574;23.734;2024-02-16T04:22:43;0.80;;;0.77;;
9520;SDS011;4798;41.574;23.734;2024-02-16T04:25:13;0.73;;;0.70;;
9520;SDS011;4798;41.574;23.734;2024-02-16T04:27:41;0.97;;;0.87;;
9520;SDS011;4798;41.574;23.734;2024-02-16T04:30:10;12.13;;;0.70;;
9520;SDS011;4798;41.574;23.734;2024-02-16T04:32:39;0.87;;;0.87;;
9520;SDS011;4798;41.574;23.734;2024-02-16T04:35:08;6.47;;;1.93;;
9520;SDS011;4798;41.574;23.734;2024-02-16T04:37:39;1.63;;;1.20;;
9520;SDS011;4798;41.574;23.734;2024-02-16T04:40:07;0.87;;;0.70;;
9520;SDS011;4798;41.574;23.734;2024-02-16T04:42:40;1.73;;;0.80;;
9520;SDS011;4798;41.574;23.734;2024-02-16T04:45:11;0.40;;;0.30;;
9520;SDS011;4798;41.574;23.734;2024-02-16T04:47:40;0.60;;;0.50;;
9520;SDS011;4798;41.574;23.734;2024-02-16T04:50:09;0.70;;;0.70;;
9520;SDS011;4798;41.574;23.734;2024-02-16T04:52:38;2.67;;;1.17;;
9520;SDS011;4798;41.574;23.734;2024-02-16T04:55:07;0.87;;;0.73;;
9520;SDS011;4798;41.574;23.734;2024-02-16T04:57:36;0.90;;;0.40;;
9520;SDS011;4798;41.574;23.734;2024-02-16T05:00:07;1.13;;;0.70;;
9520;SDS011;4798;41.574;23.734;2024-02-16T05:02:37;3.00;;;2.17;;
9520;SDS011;4798;41.574;23.734;2024-02-16T05:05:06;1.10;;;1.10;;
9520;SDS011;4798;41.574;23.734;2024-02-16T05:07:34;1.50;;;1.03;;
9520;SDS011;4798;41.574;23.734;2024-02-16T05:10:07;1.83;;;1.73;;
9520;SDS011;4798;41.574;23.734;2024-02-16T05:12:37;10.83;;;2.07;;
9520;SDS011;4798;41.574;23.734;2024-02-16T05:15:07;14.83;;;3.80;;
9520;SDS011;4798;41.574;23.734;2024-02-16T05:17:36;4.23;;;4.00;;
9520;SDS011;4798;41.574;23.734;2024-02-16T05:20:08;5.63;;;4.47;;
9520;SDS011;4798;41.574;23.734;2024-02-16T05:22:42;6.43;;;3.17;;
9520;SDS011;4798;41.574;23.734;2024-02-16T05:25:13;1.70;;;1.60;;
9520;SDS011;4798;41.574;23.734;2024-02-16T05:27:41;5.30;;;1.90;;
9520;SDS011;4798;41.574;23.734;2024-02-16T05:30:12;3.27;;;1.70;;
9520;SDS011;4798;41.574;23.734;2024-02-16T05:32:42;1.37;;;1.27;;
9520;SDS011;4798;41.574;23.734;2024-02-16T05:35:12;2.53;;;2.33;;
9520;SDS011;4798;41.574;23.734;2024-02-16T05:37:42;1.43;;;1.33;;
9520;SDS011;4798;41.574;23.734;2024-02-16T05:40:15;2.37;;;2.17;;
9520;SDS011;4798;41.574;23.734;2024-02-16T05:42:48;0.83;;;0.83;;
9520;SDS011;4798;41.574;23.734;2024-02-16T05:45:19;1.10;;;1.10;;
9520;SDS011;4798;41.574;23.734;2024-02-16T05:47:49;7.50;;;1.70;;
9520;SDS011;4798;41.574;23.734;2024-02-16T05:50:20;0.83;;;0.83;;
9520;SDS011;4798;41.574;23.734;2024-02-16T05:52:50;0.80;;;0.80;;
9520;SDS011;4798;41.574;23.734;2024-02-16T05:55:18;1.97;;;1.77;;
9520;SDS011;4798;41.574;23.734;2024-02-16T05:57:48;5.90;;;2.00;;
9520;SDS011;4798;41.574;23.734;2024-02-16T06:00:16;2.40;;;1.53;;
9520;SDS011;4798;41.574;23.734;2024-02-16T06:02:48;2.00;;;1.80;;
9520;SDS011;4798;41.574;23.734;2024-02-16T06:05:17;1.10;;;1.00;;
9520;SDS011;4798;41.574;23.734;2024-02-16T06:07:47;1.60;;;1.50;;
9520;SDS011;4798;41.574;23.734;2024-02-16T06:10:15;1.03;;;1.03;;
9520;SDS011;4798;41.574;23.734;2024-02-16T06:12:44;2.20;;;1.83;;
9520;SDS011;4798;41.574;23.734;2024-02-16T06:15:13;7.93;;;2.87;;
9520;SDS011;4798;41.574;23.734;2024-02-16T06:17:45;2.57;;;2.37;;
9520;SDS011;4798;41.574;23.734;2024-02-16T06:20:13;5.83;;;2.20;;
9520;SDS011;4798;41.574;23.734;2024-02-16T06:22:46;2.70;;;1.90;;
9520;SDS011;4798;41.574;23.734;2024-02-16T06:25:16;0.93;;;0.93;;
9520;SDS011;4798;41.574;23.734;2024-02-16T06:27:45;6.13;;;2.50;;
9520;SDS011;4798;41.574;23.734;2024-02-16T06:30:14;2.60;;;1.77;;
9520;SDS011;4798;41.574;23.734;2024-02-16T06:32:42;1.03;;;0.70;;
9520;SDS011;4798;41.574;23.734;2024-02-16T06:35:12;10.03;;;2.60;;
9520;SDS011;4798;41.574;23.734;2024-02-16T06:37:41;0.90;;;0.90;;
9520;SDS011;4798;41.574;23.734;2024-02-16T06:40:10;1.37;;;1.27;;
9520;SDS011;4798;41.574;23.734;2024-02-16T06:42:39;2.87;;;1.00;;
9520;SDS011;4798;41.574;23.734;2024-02-16T06:45:08;3.33;;;1.50;;
9520;SDS011;4798;41.574;23.734;2024-02-16T06:47:38;0.93;;;0.93;;
9520;SDS011;4798;41.574;23.734;2024-02-16T06:50:09;1.53;;;1.43;;
9520;SDS011;4798;41.574;23.734;2024-02-16T06:52:38;1.50;;;1.40;;
9520;SDS011;4798;41.574;23.734;2024-02-16T06:55:07;0.60;;;0.60;;
9520;SDS011;4798;41.574;23.734;2024-02-16T06:57:36;1.73;;;1.63;;
9520;SDS011;4798;41.574;23.734;2024-02-16T07:00:05;0.80;;;0.60;;
9520;SDS011;4798;41.574;23.734;2024-02-16T07:02:35;1.17;;;1.17;;
9520;SDS011;4798;41.574;23.734;2024-02-16T07:05:04;1.17;;;1.07;;
9520;SDS011;4798;41.574;23.734;2024-02-16T07:07:34;1.47;;;0.80;;
9520;SDS011;4798;41.574;23.734;2024-02-16T07:10:03;3.17;;;1.43;;
9520;SDS011;4798;41.574;23.734;2024-02-16T07:12:32;4.20;;;0.90;;
9520;SDS011;4798;41.574;23.734;2024-02-16T07:15:00;3.10;;;1.00;;
9520;SDS011;4798;41.574;23.734;2024-02-16T07:17:29;1.60;;;1.50;;
9520;SDS011;4798;41.574;23.734;2024-02-16T07:19:58;5.57;;;2.30;;
9520;SDS011;4798;41.574;23.734;2024-02-16T07:22:30;2.27;;;2.17;;
9520;SDS011;4798;41.574;23.734;2024-02-16T07:25:01;4.50;;;2.10;;
9520;SDS011;4798;41.574;23.734;2024-02-16T07:27:31;2.63;;;2.53;;
9520;SDS011;4798;41.574;23.734;2024-02-16T07:30:00;2.67;;;0.97;;
9520;SDS011;4798;41.574;23.734;2024-02-16T07:32:28;5.80;;;1.20;;
9520;SDS011;4798;41.574;23.734;2024-02-16T07:34:57;1.40;;;1.40;;
9520;SDS011;4798;41.574;23.734;2024-02-16T07:37:26;5.23;;;2.00;;
9520;SDS011;4798;41.574;23.734;2024-02-16T07:39:55;0.80;;;0.80;;
9520;SDS011;4798;41.574;23.734;2024-02-16T07:42:24;1.30;;;1.20;;
9520;SDS011;4798;41.574;23.734;2024-02-16T07:44:53;1.37;;;1.27;;
9520;SDS011;4798;41.574;23.734;2024-02-16T07:47:22;1.53;;;1.10;;
9520;SDS011;4798;41.574;23.734;2024-02-16T07:49:50;3.97;;;1.60;;
9520;SDS011;4798;41.574;23.734;2024-02-16T07:52:19;8.77;;;1.77;;
9520;SDS011;4798;41.574;23.734;2024-02-16T07:54:48;1.30;;;1.20;;
9520;SDS011;4798;41.574;23.734;2024-02-16T07:57:18;0.80;;;0.80;;
9520;SDS011;4798;41.574;23.734;2024-02-16T07:59:48;1.57;;;1.47;;
9520;SDS011;4798;41.574;23.734;2024-02-16T08:02:17;1.07;;;0.90;;
9520;SDS011;4798;41.574;23.734;2024-02-16T08:04:46;2.77;;;2.60;;
9520;SDS011;4798;41.574;23.734;2024-02-16T08:07:15;0.67;;;0.67;;
9520;SDS011;4798;41.574;23.734;2024-02-16T08:09:44;2.20;;;2.07;;
9520;SDS011;4798;41.574;23.734;2024-02-16T08:12:14;0.83;;;0.83;;
9520;SDS011;4798;41.574;23.734;2024-02-16T08:14:44;2.03;;;1.10;;
9520;SDS011;4798;41.574;23.734;2024-02-16T08:17:15;1.20;;;0.60;;
9520;SDS011;4798;41.574;23.734;2024-02-16T08:19:51;2.30;;;1.87;;
9520;SDS011;4798;41.574;23.734;2024-02-16T08:22:21;1.70;;;1.60;;
9520;SDS011;4798;41.574;23.734;2024-02-16T08:24:50;1.70;;;1.60;;
9520;SDS011;4798;41.574;23.734;2024-02-16T08:27:19;1.47;;;1.20;;
9520;SDS011;4798;41.574;23.734;2024-02-16T08:29:48;0.60;;;0.60;;
9520;SDS011;4798;41.574;23.734;2024-02-16T08:32:20;0.60;;;0.60;;
9520;SDS011;4798;41.574;23.734;2024-02-16T08:34:48;5.70;;;1.13;;
9520;SDS011;4798;41.574;23.734;2024-02-16T08:37:17;2.10;;;2.00;;
9520;SDS011;4798;41.574;23.734;2024-02-16T08:39:46;6.73;;;1.10;;
9520;SDS011;4798;41.574;23.734;2024-02-16T08:42:15;0.63;;;0.50;;
9520;SDS011;4798;41.574;23.734;2024-02-16T08:44:44;0.50;;;0.40;;
9520;SDS011;4798;41.574;23.734;2024-02-16T08:47:13;0.90;;;0.90;;
9520;SDS011;4798;41.574;23.734;2024-02-16T08:49:43;1.37;;;1.27;;
9520;SDS011;4798;41.574;23.734;2024-02-16T08:52:12;2.20;;;2.10;;
9520;SDS011;4798;41.574;23.734;2024-02-16T08:54:42;0.50;;;0.50;;
9520;SDS011;4798;41.574;23.734;2024-02-16T08:57:13;0.80;;;0.77;;
9520;SDS011;4798;41.574;23.734;2024-02-16T08:59:42;0.70;;;0.70;;
9520;SDS011;4798;41.574;23.734;2024-02-16T09:02:11;1.00;;;0.73;;
9520;SDS011;4798;41.574;23.734;2024-02-16T09:04:39;0.77;;;0.77;;
9520;SDS011;4798;41.574;23.734;2024-02-16T09:07:10;0.97;;;0.93;;
9520;SDS011;4798;41.574;23.734;2024-02-16T09:09:39;1.50;;;1.37;;
9520;SDS011;4798;41.574;23.734;2024-02-16T09:12:08;9.83;;;1.00;;
9520;SDS011;4798;41.574;23.734;2024-02-16T09:14:37;1.40;;;1.30;;
9520;SDS011;4798;41.574;23.734;2024-02-16T09:17:06;0.83;;;0.80;;
9520;SDS011;4798;41.574;23.734;2024-02-16T09:19:35;2.57;;;1.60;;
9520;SDS011;4798;41.574;23.734;2024-02-16T09:22:04;1.57;;;0.90;;
9520;SDS011;4798;41.574;23.734;2024-02-16T09:24:34;1.07;;;1.07;;
9520;SDS011;4798;41.574;23.734;2024-02-16T09:27:04;5.23;;;1.87;;
9520;SDS011;4798;41.574;23.734;2024-02-16T09:29:33;0.90;;;0.60;;
9520;SDS011;4798;41.574;23.734;2024-02-16T09:32:02;0.70;;;0.70;;
9520;SDS011;4798;41.574;23.734;2024-02-16T09:34:31;0.70;;;0.70;;
9520;SDS011;4798;41.574;23.734;2024-02-16T09:37:00;1.57;;;1.47;;
9520;SDS011;4798;41.574;23.734;2024-02-16T09:39:28;0.50;;;0.47;;
9520;SDS011;4798;41.574;23.734;2024-02-16T09:41:59;0.73;;;0.73;;
9520;SDS011;4798;41.574;23.734;2024-02-16T09:44:28;1.13;;;1.13;;
9520;SDS011;4798;41.574;23.734;2024-02-16T09:46:57;0.60;;;0.50;;
9520;SDS011;4798;41.574;23.734;2024-02-16T09:49:31;0.70;;;0.53;;
9520;SDS011;4798;41.574;23.734;2024-02-16T09:52:06;0.50;;;0.50;;
9520;SDS011;4798;41.574;23.734;2024-02-16T09:54:38;0.50;;;0.37;;
9520;SDS011;4798;41.574;23.734;2024-02-16T09:57:09;0.70;;;0.70;;
9520;SDS011;4798;41.574;23.734;2024-02-16T09:59:38;0.70;;;0.70;;
9520;SDS011;4798;41.574;23.734;2024-02-16T10:02:06;2.83;;;0.57;;
9520;SDS011;4798;41.574;23.734;2024-02-16T10:04:36;0.60;;;0.50;;
9520;SDS011;4798;41.574;23.734;2024-02-16T10:07:04;0.73;;;0.70;;
9520;SDS011;4798;41.574;23.734;2024-02-16T10:09:39;0.40;;;0.30;;
9520;SDS011;4798;41.574;23.734;2024-02-16T10:12:10;5.80;;;0.67;;
9520;SDS011;4798;41.574;23.734;2024-02-16T10:14:53;1.47;;;0.67;;
9520;SDS011;4798;41.574;23.734;2024-02-16T10:17:23;0.90;;;0.50;;
9520;SDS011;4798;41.574;23.734;2024-02-16T10:19:55;1.20;;;0.60;;
9520;SDS011;4798;41.574;23.734;2024-02-16T10:22:24;0.60;;;0.60;;
9520;SDS011;4798;41.574;23.734;2024-02-16T10:24:53;0.30;;;0.30;;
9520;SDS011;4798;41.574;23.734;2024-02-16T10:27:23;0.40;;;0.30;;
9520;SDS011;4798;41.574;23.734;2024-02-16T10:29:52;0.80;;;0.50;;
9520;SDS011;4798;41.574;23.734;2024-02-16T10:32:23;0.40;;;0.30;;
9520;SDS011;4798;41.574;23.734;2024-02-16T10:34:52;0.60;;;0.60;;
9520;SDS011;4798;41.574;23.734;2024-02-16T10:37:23;0.63;;;0.50;;
9520;SDS011;4798;41.574;23.734;2024-02-16T10:39:53;0.50;;;0.40;;
9520;SDS011;4798;41.574;23.734;2024-02-16T10:42:26;0.50;;;0.40;;
9520;SDS011;4798;41.574;23.734;2024-02-16T10:44:55;0.40;;;0.40;;
9520;SDS011;4798;41.574;23.734;2024-02-16T10:47:24;0.80;;;0.40;;
9520;SDS011;4798;41.574;23.734;2024-02-16T10:49:54;0.40;;;0.30;;
9520;SDS011;4798;41.574;23.734;2024-02-16T10:52:24;0.60;;;0.60;;
9520;SDS011;4798;41.574;23.734;2024-02-16T10:54:53;0.60;;;0.50;;
9520;SDS011;4798;41.574;23.734;2024-02-16T10:57:23;0.40;;;0.30;;
9520;SDS011;4798;41.574;23.734;2024-02-16T10:59:54;0.40;;;0.30;;
9520;SDS011;4798;41.574;23.734;2024-02-16T11:02:23;0.90;;;0.33;;
9520;SDS011;4798;41.574;23.734;2024-02-16T11:04:52;0.40;;;0.30;;
9520;SDS011;4798;41.574;23.734;2024-02-16T11:07:21;0.63;;;0.40;;
9520;SDS011;4798;41.574;23.734;2024-02-16T11:09:53;0.70;;;0.40;;
9520;SDS011;4798;41.574;23.734;2024-02-16T11:12:22;0.40;;;0.30;;
9520;SDS011;4798;41.574;23.734;2024-02-16T11:14:50;0.40;;;0.40;;
9520;SDS011;4798;41.574;23.734;2024-02-16T11:17:23;0.40;;;0.30;;
9520;SDS011;4798;41.574;23.734;2024-02-16T11:19:54;0.77;;;0.77;;
9520;SDS011;4798;41.574;23.734;2024-02-16T11:22:26;0.93;;;0.40;;
9520;SDS011;4798;41.574;23.734;2024-02-16T11:24:55;0.40;;;0.30;;
9520;SDS011;4798;41.574;23.734;2024-02-16T11:27:27;0.30;;;0.20;;
9520;SDS011;4798;41.574;23.734;2024-02-16T11:30:01;0.73;;;0.40;;
9520;SDS011;4798;41.574;23.734;2024-02-16T11:32:33;0.87;;;0.60;;
9520;SDS011;4798;41.574;23.734;2024-02-16T11:35:05;0.60;;;0.50;;
9520;SDS011;4798;41.574;23.734;2024-02-16T11:37:35;0.60;;;0.60;;
9520;SDS011;4798;41.574;23.734;2024-02-16T11:40:04;0.40;;;0.30;;
9520;SDS011;4798;41.574;23.734;2024-02-16T11:42:35;0.40;;;0.30;;
9520;SDS011;4798;41.574;23.734;2024-02-16T11:45:05;0.53;;;0.30;;
9520;SDS011;4798;41.574;23.734;2024-02-16T11:47:35;0.40;;;0.30;;
9520;SDS011;4798;41.574;23.734;2024-02-16T11:50:04;0.30;;;0.30;;
9520;SDS011;4798;41.574;23.734;2024-02-16T11:52:38;0.30;;;0.20;;
9520;SDS011;4798;41.574;23.734;2024-02-16T11:55:07;0.30;;;0.30;;
9520;SDS011;4798;41.574;23.734;2024-02-16T11:57:38;0.50;;;0.30;;
9520;SDS011;4798;41.574;23.734;2024-02-16T12:00:08;0.40;;;0.30;;
9520;SDS011;4798;41.574;23.734;2024-02-16T12:02:44;0.40;;;0.30;;
9520;SDS011;4798;41.574;23.734;2024-02-16T12:05:13;0.40;;;0.30;;
9520;SDS011;4798;41.574;23.734;2024-02-16T12:07:42;0.50;;;0.40;;
9520;SDS011;4798;41.574;23.734;2024-02-16T12:10:11;0.30;;;0.30;;
9520;SDS011;4798;41.574;23.734;2024-02-16T12:12:40;0.70;;;0.50;;
9520;SDS011;4798;41.574;23.734;2024-02-16T12:15:10;0.83;;;0.83;;
9520;SDS011;4798;41.574;23.734;2024-02-16T12:17:40;1.40;;;0.60;;
9520;SDS011;4798;41.574;23.734;2024-02-16T12:20:14;0.40;;;0.30;;
9520;SDS011;4798;41.574;23.734;2024-02-16T12:22:43;0.30;;;0.20;;
9520;SDS011;4798;41.574;23.734;2024-02-16T12:25:12;0.40;;;0.30;;
9520;SDS011;4798;41.574;23.734;2024-02-16T12:27:41;0.50;;;0.30;;
9520;SDS011;4798;41.574;23.734;2024-02-16T12:30:10;0.50;;;0.30;;
9520;SDS011;4798;41.574;23.734;2024-02-16T12:32:39;0.30;;;0.30;;
9520;SDS011;4798;41.574;23.734;2024-02-16T12:35:08;0.37;;;0.27;;
9520;SDS011;4798;41.574;23.734;2024-02-16T12:37:38;0.43;;;0.40;;
9520;SDS011;4798;41.574;23.734;2024-02-16T12:40:08;0.97;;;0.40;;
9520;SDS011;4798;41.574;23.734;2024-02-16T12:42:37;0.47;;;0.30;;
9520;SDS011;4798;41.574;23.734;2024-02-16T12:45:06;0.40;;;0.30;;
9520;SDS011;4798;41.574;23.734;2024-02-16T12:47:35;0.30;;;0.30;;
9520;SDS011;4798;41.574;23.734;2024-02-16T12:50:04;0.57;;;0.50;;
9520;SDS011;4798;41.574;23.734;2024-02-16T12:52:33;0.43;;;0.40;;
9520;SDS011;4798;41.574;23.734;2024-02-16T12:55:18;0.40;;;0.30;;
9520;SDS011;4798;41.574;23.734;2024-02-16T12:57:48;0.33;;;0.27;;
9520;SDS011;4798;41.574;23.734;2024-02-16T13:00:18;0.37;;;0.27;;
9520;SDS011;4798;41.574;23.734;2024-02-16T13:02:47;1.37;;;0.63;;
9520;SDS011;4798;41.574;23.734;2024-02-16T13:05:16;0.50;;;0.50;;
9520;SDS011;4798;41.574;23.734;2024-02-16T13:07:44;0.60;;;0.40;;
9520;SDS011;4798;41.574;23.734;2024-02-16T13:10:14;0.40;;;0.40;;
9520;SDS011;4798;41.574;23.734;2024-02-16T13:12:44;0.40;;;0.40;;
9520;SDS011;4798;41.574;23.734;2024-02-16T13:15:13;0.53;;;0.50;;
9520;SDS011;4798;41.574;23.734;2024-02-16T13:17:53;0.33;;;0.27;;
9520;SDS011;4798;41.574;23.734;2024-02-16T13:20:23;0.50;;;0.50;;
9520;SDS011;4798;41.574;23.734;2024-02-16T13:22:52;0.30;;;0.30;;
9520;SDS011;4798;41.574;23.734;2024-02-16T13:25:20;0.40;;;0.30;;
9520;SDS011;4798;41.574;23.734;2024-02-16T13:27:50;0.40;;;0.40;;
9520;SDS011;4798;41.574;23.734;2024-02-16T13:30:19;0.50;;;0.50;;
9520;SDS011;4798;41.574;23.734;2024-02-16T13:32:47;0.40;;;0.20;;
9520;SDS011;4798;41.574;23.734;2024-02-16T13:35:16;0.40;;;0.40;;
9520;SDS011;4798;41.574;23.734;2024-02-16T13:37:47;0.40;;;0.40;;
9520;SDS011;4798;41.574;23.734;2024-02-16T13:40:16;0.40;;;0.30;;
9520;SDS011;4798;41.574;23.734;2024-02-16T13:42:45;2.00;;;0.40;;
9520;SDS011;4798;41.574;23.734;2024-02-16T13:45:16;0.50;;;0.30;;
9520;SDS011;4798;41.574;23.734;2024-02-16T13:47:45;0.30;;;0.30;;
9520;SDS011;4798;41.574;23.734;2024-02-16T13:50:13;0.43;;;0.33;;
9520;SDS011;4798;41.574;23.734;2024-02-16T13:52:42;0.40;;;0.40;;
9520;SDS011;4798;41.574;23.734;2024-02-16T13:55:11;0.40;;;0.30;;
9520;SDS011;4798;41.574;23.734;2024-02-16T13:57:41;0.60;;;0.50;;
9520;SDS011;4798;41.574;23.734;2024-02-16T14:00:10;0.70;;;0.40;;
9520;SDS011;4798;41.574;23.734;2024-02-16T14:02:41;6.23;;;1.10;;
9520;SDS011;4798;41.574;23.734;2024-02-16T14:05:11;0.50;;;0.43;;
9520;SDS011;4798;41.574;23.734;2024-02-16T14:07:40;0.50;;;0.40;;
9520;SDS011;4798;41.574;23.734;2024-02-16T14:10:23;0.60;;;0.40;;
9520;SDS011;4798;41.574;23.734;2024-02-16T14:12:51;0.50;;;0.50;;
9520;SDS011;4798;41.574;23.734;2024-02-16T14:15:20;0.40;;;0.27;;
9520;SDS011;4798;41.574;23.734;2024-02-16T14:17:50;0.40;;;0.40;;
9520;SDS011;4798;41.574;23.734;2024-02-16T14:20:19;0.50;;;0.50;;
9520;SDS011;4798;41.574;23.734;2024-02-16T14:22:48;0.40;;;0.40;;
9520;SDS011;4798;41.574;23.734;2024-02-16T14:25:17;0.40;;;0.30;;
9520;SDS011;4798;41.574;23.734;2024-02-16T14:27:46;1.33;;;0.77;;
9520;SDS011;4798;41.574;23.734;2024-02-16T14:30:15;0.40;;;0.30;;
9520;SDS011;4798;41.574;23.734;2024-02-16T14:32:44;0.70;;;0.60;;
9520;SDS011;4798;41.574;23.734;2024-02-16T14:35:14;0.40;;;0.40;;
9520;SDS011;4798;41.574;23.734;2024-02-16T14:37:43;0.50;;;0.30;;
9520;SDS011;4798;41.574;23.734;2024-02-16T14:40:11;0.40;;;0.30;;
9520;SDS011;4798;41.574;23.734;2024-02-16T14:42:40;0.40;;;0.30;;
9520;SDS011;4798;41.574;23.734;2024-02-16T14:45:10;0.90;;;0.70;;
9520;SDS011;4798;41.574;23.734;2024-02-16T14:47:47;0.50;;;0.50;;
9520;SDS011;4798;41.574;23.734;2024-02-16T14:50:17;0.50;;;0.33;;
9520;SDS011;4798;41.574;23.734;2024-02-16T14:52:46;0.60;;;0.50;;
9520;SDS011;4798;41.574;23.734;2024-02-16T14:55:15;0.50;;;0.30;;
9520;SDS011;4798;41.574;23.734;2024-02-16T14:57:44;0.57;;;0.40;;
9520;SDS011;4798;41.574;23.734;2024-02-16T15:00:13;0.40;;;0.20;;
9520;SDS011;4798;41.574;23.734;2024-02-16T15:02:43;0.40;;;0.30;;
9520;SDS011;4798;41.574;23.734;2024-02-16T15:05:11;0.50;;;0.40;;
9520;SDS011;4798;41.574;23.734;2024-02-16T15:07:41;0.60;;;0.60;;
9520;SDS011;4798;41.574;23.734;2024-02-16T15:10:10;1.33;;;1.23;;
9520;SDS011;4798;41.574;23.734;2024-02-16T15:12:39;0.67;;;0.40;;
9520;SDS011;4798;41.574;23.734;2024-02-16T15:15:10;0.50;;;0.40;;